Terminal Aerodrome Forecast
Issued by NWS

Home | Current Version | Previous Version | Text Only | Print | Product List | Glossary On
Versions: 1 2 3 4 5 6 7 8 9 10
000
FTUS42 KMLB 270900 AAA
TAFSFB
TAF AMD
KSFB 270907Z 2709/2806 33004KT P6SM SCT020 OVC030
      TEMPO 2711/2713 5SM BR BKN015 OVC025
     FM271600 08006KT P6SM BKN035
     FM280200 06005KT 5SM BR BKN012 OVC030
      TEMPO 2804/2806 2SM BR OVC006=

USA.gov is the U.S. government's official web portal to all federal, state and local government web resources and services.